METAR / TAF

Die METAR- und TAF-Liste ist aus technischen Gründen (Verfügbarkeit, Update-Zyklen) nicht für ein Meteo-Briefing gedacht. Benutzen Sie stattdessen skybriefing der Skyguide  oder das TAMSI (MeteoSchweiz-eigene Meteo Selfbriefing-Plattform für Firmen aus der Aviatik; Anfragen über das

Kontaktformular

METAR Schweiz

METAR     LSZH 202020Z 18003KT CAVOK 05/01 Q1026 NOSIG=
METAR     LSZH 202050Z 17003KT CAVOK 04/01 Q1026 NOSIG=
METAR     LSGG 202020Z 34001KT CAVOK 04/M01 Q1026 NOSIG=
METAR     LSGG 202050Z 00000KT CAVOK 03/M00 Q1026 NOSIG=
METAR     LFSB 202100Z 21003KT CAVOK 04/02 Q1026 NOSIG=
METAR     LSZB 202020Z AUTO 15003KT CAVOK 01/M01 Q1026=
METAR     LSZB 202050Z AUTO 13004KT CAVOK 01/M01 Q1026=
METAR     LSZA 202020Z VRB01KT 7000 NSC 05/03 Q1025 NOSIG=
METAR     LSZA 202050Z 01002KT 7000 NSC 05/03 Q1025 NOSIG=
METAR     LSZG 202020Z AUTO 00000KT 8000 NCD 02/02 Q1026=
METAR     LSZG 202050Z AUTO 05002KT CAVOK 02/01 Q1027=
METAR     LSZR 202020Z AUTO VRB02KT 8000 NCD 03/02 Q1026=
METAR     LSZR 202050Z AUTO VRB01KT 9000 NCD 03/02 Q1026=
METAR     LSGS 202020Z AUTO 08005KT CAVOK 05/M02 Q1027=
METAR     LSGS 202050Z AUTO 09004KT CAVOK 05/M02 Q1027=
METAR     LSGC 202020Z AUTO 00000KT CAVOK 00/M01 Q1026=
METAR     LSGC 202050Z AUTO 00000KT CAVOK 00/M01 Q1026=
METAR     LSZC 202020Z AUTO 27003KT 230V300 CAVOK 05/M01 Q1027=
METAR     LSZC 202050Z AUTO 25003KT CAVOK 04/M02 Q1027=
METAR RRA LSZL 202050Z AUTO 00000KT 8000NDV FEW038 03/02 Q1025 RMK=
METAR     LSZL 202020Z AUTO 08003KT 8000NDV FEW037 03/01 Q1025 RMK=
METAR     LSZS 202020Z AUTO VRB02KT CAVOK M08/M11 Q1025=
METAR     LSZS 202050Z AUTO 22002KT CAVOK M09/M11 Q1026=
METAR RRA LSMA 202050Z AUTO 00000KT 9999NDV NCD 02/M01 Q1027 RMK=
METAR     LSMA 202020Z 17003KT CAVOK 02/M01 Q1027 RMK BLU=
METAR RRA LSMD 202050Z AUTO 00000KT 9999NDV NCD 03/01 Q1027 RMK=
METAR     LSMD 202020Z AUTO 08001KT 9999NDV NCD 04/01 Q1026 RMK=
METAR RRA LSME 202050Z AUTO VRB02KT 9999NDV NCD 05/01 Q1027 RMK=
METAR     LSME 202020Z AUTO 24001KT 9999NDV NCD 04/01 Q1027 RMK=
METAR     LSMM 202020Z NIL=
METAR     LSMM 202050Z NIL=
METAR     LSMP 202020Z VRB01KT 8000 NSC 04/01 Q1026 RMK BLU=
METAR     LSMP 202050Z 25002KT 8000 NSC 02/01 Q1027 RMK BLU=
METAR     LSMS 202020Z AUTO 08005KT CAVOK 05/M02 Q1027=
METAR     LSMS 202050Z AUTO 09004KT CAVOK 05/M02 Q1027=
Aktualisiert am Mittwoch, 20. Februar 2019, 22:10 Uhr

TAF Schweiz

TAF     LSZH 201725Z 2018/2124 VRB03KT CAVOK TX14/2115Z TNM02/2106Z
             BECMG 2100/2103 7000 MIFG PROB40 TEMPO 2104/2108 4000
             BR NSC BECMG 2108/2111 CAVOK=
TAF     LSGG 201725Z 2018/2124 VRB03KT CAVOK TX12/2115Z TNM02/2106Z=
TAF     LFSB 201700Z 2018/2118 23003KT CAVOK PROB40 TEMPO 2021/2107
             3000 BR=
TAF     LSGS 201425Z 2015/2024 VRB03KT CAVOK=
TAF     LSZA 201425Z 2015/2024 VRB03KT 8000 NSC BECMG 2021/2024
             4000 BR=
TAF     LSZB 201425Z 2015/2024 VRB03KT CAVOK=
TAF     LSZG 201425Z 2015/2024 VRB03KT CAVOK BECMG 2021/2024 4500
             BR=
TAF AAA LSZL 201846Z 2018/2103 VRB03KT CAVOK TEMPO 2018/2103 SCT032
             BECMG 2022/2101 4500 BR=
TAF     LSZL 201725Z 2018/2103 VRB03KT CAVOK BECMG 2022/2101 4500
             BR=
TAF     LSZR 201425Z 2015/2024 VRB03KT CAVOK TEMPO 2015/2018 9999
             SCT070=
TAF     LSGC 201425Z 2015/2024 23004KT CAVOK=
TAF     LSZC 201425Z 2015/2024 VRB03KT CAVOK=
TAF     LSZS 201425Z 2015/2024 VRB03KT CAVOK TX05/2015Z=
TAF     LSMA 201625Z 2017/2123 VRB03KT CAVOK=
TAF     LSMD 201625Z 2017/2123 VRB03KT 9999 FEW070 BECMG 2017/2020
             CAVOK BECMG 2100/2103 8000 NSC TEMPO 2104/2108 4000
             MIFG BECMG 2108/2111 CAVOK=
TAF     LSME 201625Z 2017/2123 VRB03KT CAVOK BECMG 2100/2103 8000
             NSC TEMPO 2104/2108 4000 MIFG BECMG 2108/2111 CAVOK=
TAF     LSMM 201625Z 2017/2123 VRB03KT CAVOK BECMG 2100/2103 8000
             NSC PROB40 TEMPO 2104/2108 4000 MIFG BECMG 2108/2111
             CAVOK=
TAF     LSMP 201625Z 2017/2123 VRB03KT CAVOK TEMPO 2101/2108 4500
             BR NSC=
Aktualisiert am Mittwoch, 20. Februar 2019, 20:03 Uhr